sensor_id;sensor_type;location;lat;lon;timestamp;P1;durP1;ratioP1;P2;durP2;ratioP2
39356;SDS011;25077;50.302;18.996;2022-12-20T00:00:06;25.67;;;12.73;;
39356;SDS011;25077;50.302;18.996;2022-12-20T00:03:09;27.83;;;13.03;;
39356;SDS011;25077;50.302;18.996;2022-12-20T00:06:12;26.37;;;13.00;;
39356;SDS011;25077;50.302;18.996;2022-12-20T00:09:14;31.00;;;13.37;;
39356;SDS011;25077;50.302;18.996;2022-12-20T00:12:16;25.70;;;12.87;;
39356;SDS011;25077;50.302;18.996;2022-12-20T00:15:19;25.47;;;12.57;;
39356;SDS011;25077;50.302;18.996;2022-12-20T00:18:22;28.13;;;13.23;;
39356;SDS011;25077;50.302;18.996;2022-12-20T00:21:24;20.70;;;11.90;;
39356;SDS011;25077;50.302;18.996;2022-12-20T00:24:27;21.23;;;10.77;;
39356;SDS011;25077;50.302;18.996;2022-12-20T00:27:29;24.90;;;11.90;;
39356;SDS011;25077;50.302;18.996;2022-12-20T00:30:32;23.63;;;11.97;;
39356;SDS011;25077;50.302;18.996;2022-12-20T00:33:37;25.67;;;11.00;;
39356;SDS011;25077;50.302;18.996;2022-12-20T00:36:42;25.47;;;12.43;;
39356;SDS011;25077;50.302;18.996;2022-12-20T00:39:44;25.17;;;13.37;;
39356;SDS011;25077;50.302;18.996;2022-12-20T00:42:47;27.60;;;12.23;;
39356;SDS011;25077;50.302;18.996;2022-12-20T00:45:50;24.40;;;12.70;;
39356;SDS011;25077;50.302;18.996;2022-12-20T00:48:53;24.93;;;12.03;;
39356;SDS011;25077;50.302;18.996;2022-12-20T00:51:56;26.37;;;12.80;;
39356;SDS011;25077;50.302;18.996;2022-12-20T00:54:58;27.30;;;13.00;;
39356;SDS011;25077;50.302;18.996;2022-12-20T00:58:00;28.10;;;11.30;;
39356;SDS011;25077;50.302;18.996;2022-12-20T01:01:04;21.67;;;11.00;;
39356;SDS011;25077;50.302;18.996;2022-12-20T01:04:07;21.87;;;11.63;;
39356;SDS011;25077;50.302;18.996;2022-12-20T01:07:09;24.63;;;11.90;;
39356;SDS011;25077;50.302;18.996;2022-12-20T01:10:11;26.47;;;11.50;;
39356;SDS011;25077;50.302;18.996;2022-12-20T01:13:14;25.77;;;12.03;;
39356;SDS011;25077;50.302;18.996;2022-12-20T01:16:19;22.30;;;11.13;;
39356;SDS011;25077;50.302;18.996;2022-12-20T01:19:23;22.73;;;11.07;;
39356;SDS011;25077;50.302;18.996;2022-12-20T01:22:25;23.60;;;11.47;;
39356;SDS011;25077;50.302;18.996;2022-12-20T01:25:27;27.40;;;12.23;;
39356;SDS011;25077;50.302;18.996;2022-12-20T01:28:29;21.03;;;9.73;;
39356;SDS011;25077;50.302;18.996;2022-12-20T01:31:34;25.27;;;10.27;;
39356;SDS011;25077;50.302;18.996;2022-12-20T01:34:36;24.57;;;10.73;;
39356;SDS011;25077;50.302;18.996;2022-12-20T01:37:38;25.45;;;10.30;;
39356;SDS011;25077;50.302;18.996;2022-12-20T01:40:41;22.87;;;10.77;;
39356;SDS011;25077;50.302;18.996;2022-12-20T01:43:44;23.40;;;11.83;;
39356;SDS011;25077;50.302;18.996;2022-12-20T01:46:53;23.40;;;12.03;;
39356;SDS011;25077;50.302;18.996;2022-12-20T01:49:55;26.67;;;11.73;;
39356;SDS011;25077;50.302;18.996;2022-12-20T01:53:00;19.57;;;10.60;;
39356;SDS011;25077;50.302;18.996;2022-12-20T01:56:05;19.60;;;9.97;;
39356;SDS011;25077;50.302;18.996;2022-12-20T01:59:09;22.97;;;10.87;;
39356;SDS011;25077;50.302;18.996;2022-12-20T02:02:14;22.17;;;10.47;;
39356;SDS011;25077;50.302;18.996;2022-12-20T02:05:17;25.57;;;11.83;;
39356;SDS011;25077;50.302;18.996;2022-12-20T02:08:21;22.67;;;11.20;;
39356;SDS011;25077;50.302;18.996;2022-12-20T02:11:28;19.67;;;10.83;;
39356;SDS011;25077;50.302;18.996;2022-12-20T02:14:44;23.97;;;11.67;;
39356;SDS011;25077;50.302;18.996;2022-12-20T02:18:12;23.40;;;11.03;;
39356;SDS011;25077;50.302;18.996;2022-12-20T02:21:23;23.23;;;11.93;;
39356;SDS011;25077;50.302;18.996;2022-12-20T02:28:20;25.77;;;11.70;;
39356;SDS011;25077;50.302;18.996;2022-12-20T02:31:38;21.40;;;10.90;;
39356;SDS011;25077;50.302;18.996;2022-12-20T02:34:47;19.53;;;10.63;;
39356;SDS011;25077;50.302;18.996;2022-12-20T02:37:50;23.40;;;11.77;;
39356;SDS011;25077;50.302;18.996;2022-12-20T02:40:56;20.17;;;10.13;;
39356;SDS011;25077;50.302;18.996;2022-12-20T02:44:03;25.03;;;11.50;;
39356;SDS011;25077;50.302;18.996;2022-12-20T02:47:29;20.87;;;10.57;;
39356;SDS011;25077;50.302;18.996;2022-12-20T02:50:37;20.70;;;10.23;;
39356;SDS011;25077;50.302;18.996;2022-12-20T02:53:46;26.57;;;12.07;;
39356;SDS011;25077;50.302;18.996;2022-12-20T02:56:49;24.03;;;11.27;;
39356;SDS011;25077;50.302;18.996;2022-12-20T02:59:56;22.67;;;10.77;;
39356;SDS011;25077;50.302;18.996;2022-12-20T03:03:08;21.03;;;10.97;;
39356;SDS011;25077;50.302;18.996;2022-12-20T03:06:23;20.17;;;9.90;;
39356;SDS011;25077;50.302;18.996;2022-12-20T03:09:26;21.90;;;10.70;;
39356;SDS011;25077;50.302;18.996;2022-12-20T03:12:28;24.73;;;10.50;;
39356;SDS011;25077;50.302;18.996;2022-12-20T03:15:30;19.83;;;10.10;;
39356;SDS011;25077;50.302;18.996;2022-12-20T03:18:37;18.80;;;9.80;;
39356;SDS011;25077;50.302;18.996;2022-12-20T03:21:39;25.07;;;11.73;;
39356;SDS011;25077;50.302;18.996;2022-12-20T03:24:42;24.53;;;11.53;;
39356;SDS011;25077;50.302;18.996;2022-12-20T03:27:46;21.30;;;10.53;;
39356;SDS011;25077;50.302;18.996;2022-12-20T03:30:48;21.90;;;10.93;;
39356;SDS011;25077;50.302;18.996;2022-12-20T03:33:52;20.50;;;10.53;;
39356;SDS011;25077;50.302;18.996;2022-12-20T03:36:54;16.67;;;8.27;;
39356;SDS011;25077;50.302;18.996;2022-12-20T03:39:56;18.60;;;10.03;;
39356;SDS011;25077;50.302;18.996;2022-12-20T03:42:59;21.20;;;9.93;;
39356;SDS011;25077;50.302;18.996;2022-12-20T03:46:02;20.87;;;10.90;;
39356;SDS011;25077;50.302;18.996;2022-12-20T03:49:10;23.00;;;11.43;;
39356;SDS011;25077;50.302;18.996;2022-12-20T03:52:19;17.43;;;9.27;;
39356;SDS011;25077;50.302;18.996;2022-12-20T03:55:21;21.07;;;9.73;;
39356;SDS011;25077;50.302;18.996;2022-12-20T03:58:24;26.37;;;12.30;;
39356;SDS011;25077;50.302;18.996;2022-12-20T04:01:27;20.93;;;10.00;;
39356;SDS011;25077;50.302;18.996;2022-12-20T04:04:31;21.77;;;10.93;;
39356;SDS011;25077;50.302;18.996;2022-12-20T04:07:33;22.13;;;10.37;;
39356;SDS011;25077;50.302;18.996;2022-12-20T04:10:36;21.47;;;11.37;;
39356;SDS011;25077;50.302;18.996;2022-12-20T04:14:01;22.43;;;10.53;;
39356;SDS011;25077;50.302;18.996;2022-12-20T04:17:03;22.20;;;10.87;;
39356;SDS011;25077;50.302;18.996;2022-12-20T04:20:09;23.17;;;11.53;;
39356;SDS011;25077;50.302;18.996;2022-12-20T04:23:28;25.27;;;10.87;;
39356;SDS011;25077;50.302;18.996;2022-12-20T04:26:32;24.77;;;11.20;;
39356;SDS011;25077;50.302;18.996;2022-12-20T04:29:37;25.10;;;10.87;;
39356;SDS011;25077;50.302;18.996;2022-12-20T04:32:43;26.50;;;11.17;;
39356;SDS011;25077;50.302;18.996;2022-12-20T04:35:46;24.73;;;11.67;;
39356;SDS011;25077;50.302;18.996;2022-12-20T04:38:50;23.97;;;11.67;;
39356;SDS011;25077;50.302;18.996;2022-12-20T04:41:54;29.10;;;13.80;;
39356;SDS011;25077;50.302;18.996;2022-12-20T04:44:56;27.63;;;12.83;;
39356;SDS011;25077;50.302;18.996;2022-12-20T04:48:02;27.13;;;13.17;;
39356;SDS011;25077;50.302;18.996;2022-12-20T04:51:11;22.60;;;11.90;;
39356;SDS011;25077;50.302;18.996;2022-12-20T04:54:14;27.50;;;12.63;;
39356;SDS011;25077;50.302;18.996;2022-12-20T04:57:28;25.43;;;10.87;;
39356;SDS011;25077;50.302;18.996;2022-12-20T05:00:32;28.37;;;12.03;;
39356;SDS011;25077;50.302;18.996;2022-12-20T05:03:42;22.30;;;12.47;;
39356;SDS011;25077;50.302;18.996;2022-12-20T05:06:46;22.10;;;12.07;;
39356;SDS011;25077;50.302;18.996;2022-12-20T05:09:48;24.60;;;11.57;;
39356;SDS011;25077;50.302;18.996;2022-12-20T05:12:50;21.70;;;11.70;;
39356;SDS011;25077;50.302;18.996;2022-12-20T05:16:05;23.10;;;10.90;;
39356;SDS011;25077;50.302;18.996;2022-12-20T05:19:08;20.53;;;10.20;;
39356;SDS011;25077;50.302;18.996;2022-12-20T05:22:15;22.40;;;11.40;;
39356;SDS011;25077;50.302;18.996;2022-12-20T05:25:45;24.37;;;12.40;;
39356;SDS011;25077;50.302;18.996;2022-12-20T05:29:05;25.70;;;12.50;;
39356;SDS011;25077;50.302;18.996;2022-12-20T05:32:08;23.47;;;11.57;;
39356;SDS011;25077;50.302;18.996;2022-12-20T05:35:13;25.20;;;12.80;;
39356;SDS011;25077;50.302;18.996;2022-12-20T05:38:18;26.03;;;12.67;;
39356;SDS011;25077;50.302;18.996;2022-12-20T05:41:20;25.60;;;13.37;;
39356;SDS011;25077;50.302;18.996;2022-12-20T05:44:25;25.60;;;13.33;;
39356;SDS011;25077;50.302;18.996;2022-12-20T05:47:30;27.27;;;13.13;;
39356;SDS011;25077;50.302;18.996;2022-12-20T05:50:39;30.07;;;14.20;;
39356;SDS011;25077;50.302;18.996;2022-12-20T05:53:59;29.63;;;14.63;;
39356;SDS011;25077;50.302;18.996;2022-12-20T05:57:16;25.63;;;13.03;;
39356;SDS011;25077;50.302;18.996;2022-12-20T06:00:20;32.20;;;14.17;;
39356;SDS011;25077;50.302;18.996;2022-12-20T06:03:24;33.40;;;13.53;;
39356;SDS011;25077;50.302;18.996;2022-12-20T06:06:27;29.67;;;14.10;;
39356;SDS011;25077;50.302;18.996;2022-12-20T06:09:31;29.50;;;14.80;;
39356;SDS011;25077;50.302;18.996;2022-12-20T06:12:41;28.57;;;14.27;;
39356;SDS011;25077;50.302;18.996;2022-12-20T06:15:43;28.43;;;13.77;;
39356;SDS011;25077;50.302;18.996;2022-12-20T06:18:45;29.57;;;14.23;;
39356;SDS011;25077;50.302;18.996;2022-12-20T06:21:48;31.33;;;15.27;;
39356;SDS011;25077;50.302;18.996;2022-12-20T06:24:55;27.30;;;14.00;;
39356;SDS011;25077;50.302;18.996;2022-12-20T06:28:01;29.90;;;14.87;;
39356;SDS011;25077;50.302;18.996;2022-12-20T06:31:04;28.23;;;14.50;;
39356;SDS011;25077;50.302;18.996;2022-12-20T06:34:15;30.43;;;15.37;;
39356;SDS011;25077;50.302;18.996;2022-12-20T06:37:18;30.53;;;14.80;;
39356;SDS011;25077;50.302;18.996;2022-12-20T06:40:22;30.97;;;14.00;;
39356;SDS011;25077;50.302;18.996;2022-12-20T06:43:25;31.67;;;14.93;;
39356;SDS011;25077;50.302;18.996;2022-12-20T06:46:28;27.77;;;14.90;;
39356;SDS011;25077;50.302;18.996;2022-12-20T06:49:31;31.40;;;14.67;;
39356;SDS011;25077;50.302;18.996;2022-12-20T06:52:33;29.30;;;15.00;;
39356;SDS011;25077;50.302;18.996;2022-12-20T06:55:37;30.87;;;16.57;;
39356;SDS011;25077;50.302;18.996;2022-12-20T06:58:39;29.00;;;14.93;;
39356;SDS011;25077;50.302;18.996;2022-12-20T07:01:42;31.63;;;15.47;;
39356;SDS011;25077;50.302;18.996;2022-12-20T07:04:45;32.33;;;15.90;;
39356;SDS011;25077;50.302;18.996;2022-12-20T07:07:47;36.47;;;17.23;;
39356;SDS011;25077;50.302;18.996;2022-12-20T07:10:51;34.97;;;16.17;;
39356;SDS011;25077;50.302;18.996;2022-12-20T07:13:54;30.80;;;15.93;;
39356;SDS011;25077;50.302;18.996;2022-12-20T07:16:56;36.30;;;17.60;;
39356;SDS011;25077;50.302;18.996;2022-12-20T07:19:58;29.67;;;15.17;;
39356;SDS011;25077;50.302;18.996;2022-12-20T07:23:01;36.00;;;16.93;;
39356;SDS011;25077;50.302;18.996;2022-12-20T07:26:04;32.40;;;16.30;;
39356;SDS011;25077;50.302;18.996;2022-12-20T07:29:07;37.83;;;16.90;;
39356;SDS011;25077;50.302;18.996;2022-12-20T07:32:10;34.77;;;16.73;;
39356;SDS011;25077;50.302;18.996;2022-12-20T07:35:13;34.87;;;17.27;;
39356;SDS011;25077;50.302;18.996;2022-12-20T07:38:16;32.50;;;15.77;;
39356;SDS011;25077;50.302;18.996;2022-12-20T07:41:20;34.50;;;16.53;;
39356;SDS011;25077;50.302;18.996;2022-12-20T07:44:23;33.13;;;16.20;;
39356;SDS011;25077;50.302;18.996;2022-12-20T07:47:25;35.23;;;17.17;;
39356;SDS011;25077;50.302;18.996;2022-12-20T07:50:29;34.47;;;16.93;;
39356;SDS011;25077;50.302;18.996;2022-12-20T07:53:33;31.27;;;15.97;;
39356;SDS011;25077;50.302;18.996;2022-12-20T07:56:40;34.77;;;18.63;;
39356;SDS011;25077;50.302;18.996;2022-12-20T07:59:46;34.57;;;16.77;;
39356;SDS011;25077;50.302;18.996;2022-12-20T08:02:51;31.63;;;15.57;;
39356;SDS011;25077;50.302;18.996;2022-12-20T08:05:57;31.27;;;15.87;;
39356;SDS011;25077;50.302;18.996;2022-12-20T08:09:04;33.53;;;16.13;;
39356;SDS011;25077;50.302;18.996;2022-12-20T08:12:08;32.40;;;16.07;;
39356;SDS011;25077;50.302;18.996;2022-12-20T08:15:13;32.30;;;16.40;;
39356;SDS011;25077;50.302;18.996;2022-12-20T08:18:16;35.27;;;14.97;;
39356;SDS011;25077;50.302;18.996;2022-12-20T08:21:18;32.60;;;15.90;;
39356;SDS011;25077;50.302;18.996;2022-12-20T08:24:20;31.73;;;15.53;;
39356;SDS011;25077;50.302;18.996;2022-12-20T08:27:24;33.40;;;16.67;;
39356;SDS011;25077;50.302;18.996;2022-12-20T08:30:26;31.53;;;14.80;;
39356;SDS011;25077;50.302;18.996;2022-12-20T08:33:28;31.97;;;16.73;;
39356;SDS011;25077;50.302;18.996;2022-12-20T08:36:31;30.47;;;15.03;;
39356;SDS011;25077;50.302;18.996;2022-12-20T08:39:33;28.83;;;15.00;;
39356;SDS011;25077;50.302;18.996;2022-12-20T08:42:37;31.83;;;14.90;;
39356;SDS011;25077;50.302;18.996;2022-12-20T08:45:39;30.80;;;15.63;;
39356;SDS011;25077;50.302;18.996;2022-12-20T08:48:41;32.10;;;15.97;;
39356;SDS011;25077;50.302;18.996;2022-12-20T08:51:43;28.67;;;14.80;;
39356;SDS011;25077;50.302;18.996;2022-12-20T08:54:46;32.23;;;15.37;;
39356;SDS011;25077;50.302;18.996;2022-12-20T08:57:49;29.60;;;14.90;;
39356;SDS011;25077;50.302;18.996;2022-12-20T09:00:51;29.67;;;14.67;;
39356;SDS011;25077;50.302;18.996;2022-12-20T09:03:53;27.87;;;14.60;;
39356;SDS011;25077;50.302;18.996;2022-12-20T09:06:55;25.73;;;13.73;;
39356;SDS011;25077;50.302;18.996;2022-12-20T09:09:57;28.57;;;13.23;;
39356;SDS011;25077;50.302;18.996;2022-12-20T09:13:01;26.40;;;13.70;;
39356;SDS011;25077;50.302;18.996;2022-12-20T09:16:03;26.83;;;13.33;;
39356;SDS011;25077;50.302;18.996;2022-12-20T09:19:09;24.40;;;13.00;;
39356;SDS011;25077;50.302;18.996;2022-12-20T09:22:13;27.83;;;13.07;;
39356;SDS011;25077;50.302;18.996;2022-12-20T09:25:15;26.67;;;14.20;;
39356;SDS011;25077;50.302;18.996;2022-12-20T09:28:19;26.40;;;12.50;;
39356;SDS011;25077;50.302;18.996;2022-12-20T09:31:22;28.63;;;14.17;;
39356;SDS011;25077;50.302;18.996;2022-12-20T09:34:26;26.20;;;12.47;;
39356;SDS011;25077;50.302;18.996;2022-12-20T09:37:28;27.40;;;12.87;;
39356;SDS011;25077;50.302;18.996;2022-12-20T09:40:31;26.63;;;14.50;;
39356;SDS011;25077;50.302;18.996;2022-12-20T09:43:38;27.00;;;13.33;;
39356;SDS011;25077;50.302;18.996;2022-12-20T09:46:41;25.20;;;13.17;;
39356;SDS011;25077;50.302;18.996;2022-12-20T09:49:46;23.67;;;13.47;;
39356;SDS011;25077;50.302;18.996;2022-12-20T09:52:54;24.17;;;12.70;;
39356;SDS011;25077;50.302;18.996;2022-12-20T09:56:07;29.37;;;14.50;;
39356;SDS011;25077;50.302;18.996;2022-12-20T09:59:17;25.77;;;13.77;;
39356;SDS011;25077;50.302;18.996;2022-12-20T10:02:21;28.60;;;12.97;;
39356;SDS011;25077;50.302;18.996;2022-12-20T10:05:27;25.97;;;13.67;;
39356;SDS011;25077;50.302;18.996;2022-12-20T10:08:43;29.60;;;14.93;;
39356;SDS011;25077;50.302;18.996;2022-12-20T10:11:56;26.27;;;13.60;;
39356;SDS011;25077;50.302;18.996;2022-12-20T10:15:12;27.20;;;14.00;;
39356;SDS011;25077;50.302;18.996;2022-12-20T10:18:26;32.23;;;16.10;;
39356;SDS011;25077;50.302;18.996;2022-12-20T10:21:38;31.43;;;16.07;;
39356;SDS011;25077;50.302;18.996;2022-12-20T10:24:50;31.50;;;14.47;;
39356;SDS011;25077;50.302;18.996;2022-12-20T10:27:59;29.77;;;14.87;;
39356;SDS011;25077;50.302;18.996;2022-12-20T10:31:06;19.33;;;11.03;;
39356;SDS011;25077;50.302;18.996;2022-12-20T10:34:12;27.83;;;13.90;;
39356;SDS011;25077;50.302;18.996;2022-12-20T10:37:14;24.83;;;13.00;;
39356;SDS011;25077;50.302;18.996;2022-12-20T10:40:22;23.40;;;12.57;;
39356;SDS011;25077;50.302;18.996;2022-12-20T10:43:41;25.67;;;12.90;;
39356;SDS011;25077;50.302;18.996;2022-12-20T10:46:47;28.03;;;14.50;;
39356;SDS011;25077;50.302;18.996;2022-12-20T10:49:53;29.47;;;14.70;;
39356;SDS011;25077;50.302;18.996;2022-12-20T10:53:19;29.20;;;14.07;;
39356;SDS011;25077;50.302;18.996;2022-12-20T10:56:24;26.30;;;13.67;;
39356;SDS011;25077;50.302;18.996;2022-12-20T10:59:29;28.80;;;15.13;;
39356;SDS011;25077;50.302;18.996;2022-12-20T11:02:37;28.57;;;15.10;;
39356;SDS011;25077;50.302;18.996;2022-12-20T11:05:40;29.07;;;14.63;;
39356;SDS011;25077;50.302;18.996;2022-12-20T11:09:07;28.40;;;14.53;;
39356;SDS011;25077;50.302;18.996;2022-12-20T11:12:22;31.53;;;15.00;;
39356;SDS011;25077;50.302;18.996;2022-12-20T11:15:26;26.90;;;14.20;;
39356;SDS011;25077;50.302;18.996;2022-12-20T11:18:34;30.93;;;15.10;;
39356;SDS011;25077;50.302;18.996;2022-12-20T11:21:47;27.27;;;13.00;;
39356;SDS011;25077;50.302;18.996;2022-12-20T11:25:01;28.17;;;14.67;;
39356;SDS011;25077;50.302;18.996;2022-12-20T11:28:23;24.87;;;13.77;;
39356;SDS011;25077;50.302;18.996;2022-12-20T11:31:39;27.63;;;13.77;;
39356;SDS011;25077;50.302;18.996;2022-12-20T11:34:52;25.63;;;13.77;;
39356;SDS011;25077;50.302;18.996;2022-12-20T11:38:05;27.57;;;14.27;;
39356;SDS011;25077;50.302;18.996;2022-12-20T11:41:17;25.87;;;13.47;;
39356;SDS011;25077;50.302;18.996;2022-12-20T11:44:26;25.63;;;14.13;;
39356;SDS011;25077;50.302;18.996;2022-12-20T11:47:46;28.77;;;13.97;;
39356;SDS011;25077;50.302;18.996;2022-12-20T11:51:03;27.13;;;13.30;;
39356;SDS011;25077;50.302;18.996;2022-12-20T11:54:12;28.73;;;14.53;;
39356;SDS011;25077;50.302;18.996;2022-12-20T11:57:19;22.70;;;12.40;;
39356;SDS011;25077;50.302;18.996;2022-12-20T12:00:27;29.43;;;14.67;;
39356;SDS011;25077;50.302;18.996;2022-12-20T12:03:31;27.97;;;13.87;;
39356;SDS011;25077;50.302;18.996;2022-12-20T12:06:38;26.70;;;14.10;;
39356;SDS011;25077;50.302;18.996;2022-12-20T12:09:47;27.87;;;13.73;;
39356;SDS011;25077;50.302;18.996;2022-12-20T12:12:56;30.07;;;15.40;;
39356;SDS011;25077;50.302;18.996;2022-12-20T12:16:05;30.07;;;15.10;;
39356;SDS011;25077;50.302;18.996;2022-12-20T12:19:11;35.87;;;14.03;;
39356;SDS011;25077;50.302;18.996;2022-12-20T12:22:27;27.17;;;14.43;;
39356;SDS011;25077;50.302;18.996;2022-12-20T12:25:34;31.40;;;15.53;;
39356;SDS011;25077;50.302;18.996;2022-12-20T12:28:37;29.27;;;14.00;;
39356;SDS011;25077;50.302;18.996;2022-12-20T12:31:41;31.20;;;15.50;;
39356;SDS011;25077;50.302;18.996;2022-12-20T12:34:53;34.70;;;16.10;;
39356;SDS011;25077;50.302;18.996;2022-12-20T12:38:24;28.83;;;14.50;;
39356;SDS011;25077;50.302;18.996;2022-12-20T12:45:40;31.17;;;14.37;;
39356;SDS011;25077;50.302;18.996;2022-12-20T12:48:49;29.30;;;13.23;;
39356;SDS011;25077;50.302;18.996;2022-12-20T12:51:57;26.97;;;13.77;;
39356;SDS011;25077;50.302;18.996;2022-12-20T12:55:02;30.27;;;15.23;;
39356;SDS011;25077;50.302;18.996;2022-12-20T13:05:28;30.47;;;14.07;;
39356;SDS011;25077;50.302;18.996;2022-12-20T13:08:45;27.03;;;14.87;;
39356;SDS011;25077;50.302;18.996;2022-12-20T13:11:51;26.13;;;12.30;;
39356;SDS011;25077;50.302;18.996;2022-12-20T13:14:54;30.47;;;14.77;;
39356;SDS011;25077;50.302;18.996;2022-12-20T13:17:56;28.47;;;14.47;;
39356;SDS011;25077;50.302;18.996;2022-12-20T13:24:37;32.27;;;16.23;;
39356;SDS011;25077;50.302;18.996;2022-12-20T13:31:33;35.57;;;16.17;;
39356;SDS011;25077;50.302;18.996;2022-12-20T13:34:36;32.93;;;16.20;;
39356;SDS011;25077;50.302;18.996;2022-12-20T13:37:53;35.30;;;15.97;;
39356;SDS011;25077;50.302;18.996;2022-12-20T13:40:59;34.97;;;16.43;;
39356;SDS011;25077;50.302;18.996;2022-12-20T13:47:39;33.20;;;16.33;;
39356;SDS011;25077;50.302;18.996;2022-12-20T13:50:47;31.87;;;16.70;;
39356;SDS011;25077;50.302;18.996;2022-12-20T13:53:52;36.17;;;18.00;;
39356;SDS011;25077;50.302;18.996;2022-12-20T13:56:56;31.67;;;16.37;;
39356;SDS011;25077;50.302;18.996;2022-12-20T14:00:00;33.63;;;16.97;;
39356;SDS011;25077;50.302;18.996;2022-12-20T14:03:13;32.00;;;16.90;;
39356;SDS011;25077;50.302;18.996;2022-12-20T14:06:20;39.80;;;17.57;;
39356;SDS011;25077;50.302;18.996;2022-12-20T14:09:28;32.27;;;16.70;;
39356;SDS011;25077;50.302;18.996;2022-12-20T14:12:33;35.93;;;17.37;;
39356;SDS011;25077;50.302;18.996;2022-12-20T14:15:35;31.77;;;16.30;;
39356;SDS011;25077;50.302;18.996;2022-12-20T14:18:40;30.20;;;15.60;;
39356;SDS011;25077;50.302;18.996;2022-12-20T14:21:43;29.93;;;15.50;;
39356;SDS011;25077;50.302;18.996;2022-12-20T14:24:46;33.13;;;15.60;;
39356;SDS011;25077;50.302;18.996;2022-12-20T14:27:49;31.03;;;14.80;;
39356;SDS011;25077;50.302;18.996;2022-12-20T14:30:51;33.73;;;16.17;;
39356;SDS011;25077;50.302;18.996;2022-12-20T14:34:02;30.10;;;16.13;;
39356;SDS011;25077;50.302;18.996;2022-12-20T14:37:25;34.77;;;16.40;;
39356;SDS011;25077;50.302;18.996;2022-12-20T14:40:30;36.60;;;16.13;;
39356;SDS011;25077;50.302;18.996;2022-12-20T14:43:41;36.97;;;17.83;;
39356;SDS011;25077;50.302;18.996;2022-12-20T14:46:46;37.10;;;18.70;;
39356;SDS011;25077;50.302;18.996;2022-12-20T14:49:51;41.07;;;18.23;;
39356;SDS011;25077;50.302;18.996;2022-12-20T14:52:58;37.07;;;17.33;;
39356;SDS011;25077;50.302;18.996;2022-12-20T14:56:00;36.93;;;17.83;;
39356;SDS011;25077;50.302;18.996;2022-12-20T14:59:04;33.70;;;16.60;;
39356;SDS011;25077;50.302;18.996;2022-12-20T15:02:30;36.47;;;17.60;;
39356;SDS011;25077;50.302;18.996;2022-12-20T15:05:41;35.20;;;17.00;;
39356;SDS011;25077;50.302;18.996;2022-12-20T15:08:53;36.40;;;16.70;;
39356;SDS011;25077;50.302;18.996;2022-12-20T15:11:55;32.17;;;15.50;;
39356;SDS011;25077;50.302;18.996;2022-12-20T15:14:58;34.23;;;17.37;;
39356;SDS011;25077;50.302;18.996;2022-12-20T15:18:00;32.63;;;15.83;;
39356;SDS011;25077;50.302;18.996;2022-12-20T15:21:05;40.87;;;19.20;;
39356;SDS011;25077;50.302;18.996;2022-12-20T15:24:14;37.70;;;17.63;;
39356;SDS011;25077;50.302;18.996;2022-12-20T15:27:19;38.87;;;19.17;;
39356;SDS011;25077;50.302;18.996;2022-12-20T15:30:22;32.13;;;17.63;;
39356;SDS011;25077;50.302;18.996;2022-12-20T15:33:24;36.93;;;17.70;;
39356;SDS011;25077;50.302;18.996;2022-12-20T15:36:30;35.67;;;17.47;;
39356;SDS011;25077;50.302;18.996;2022-12-20T15:39:33;35.70;;;18.13;;
39356;SDS011;25077;50.302;18.996;2022-12-20T15:42:36;36.40;;;17.30;;
39356;SDS011;25077;50.302;18.996;2022-12-20T15:45:40;30.53;;;15.40;;
39356;SDS011;25077;50.302;18.996;2022-12-20T15:48:43;36.80;;;17.90;;
39356;SDS011;25077;50.302;18.996;2022-12-20T15:51:48;36.90;;;17.50;;
39356;SDS011;25077;50.302;18.996;2022-12-20T15:54:51;35.20;;;17.40;;
39356;SDS011;25077;50.302;18.996;2022-12-20T15:57:53;36.57;;;17.80;;
39356;SDS011;25077;50.302;18.996;2022-12-20T16:00:57;31.73;;;16.27;;
39356;SDS011;25077;50.302;18.996;2022-12-20T16:04:02;32.37;;;16.20;;
39356;SDS011;25077;50.302;18.996;2022-12-20T16:07:08;33.73;;;17.63;;
39356;SDS011;25077;50.302;18.996;2022-12-20T16:10:12;33.07;;;17.93;;
39356;SDS011;25077;50.302;18.996;2022-12-20T16:13:20;36.53;;;19.10;;
39356;SDS011;25077;50.302;18.996;2022-12-20T16:16:24;34.93;;;16.30;;
39356;SDS011;25077;50.302;18.996;2022-12-20T16:19:29;39.67;;;18.67;;
39356;SDS011;25077;50.302;18.996;2022-12-20T16:22:33;35.70;;;18.00;;
39356;SDS011;25077;50.302;18.996;2022-12-20T16:25:36;37.37;;;18.43;;
39356;SDS011;25077;50.302;18.996;2022-12-20T16:28:39;39.07;;;18.23;;
39356;SDS011;25077;50.302;18.996;2022-12-20T16:31:41;36.30;;;17.70;;
39356;SDS011;25077;50.302;18.996;2022-12-20T16:34:44;36.07;;;17.13;;
39356;SDS011;25077;50.302;18.996;2022-12-20T16:37:48;35.70;;;17.20;;
39356;SDS011;25077;50.302;18.996;2022-12-20T16:40:50;38.70;;;18.50;;
39356;SDS011;25077;50.302;18.996;2022-12-20T16:43:53;38.63;;;19.93;;
39356;SDS011;25077;50.302;18.996;2022-12-20T16:46:57;38.33;;;18.43;;
39356;SDS011;25077;50.302;18.996;2022-12-20T16:49:59;36.53;;;18.53;;
39356;SDS011;25077;50.302;18.996;2022-12-20T16:53:02;41.77;;;19.77;;
39356;SDS011;25077;50.302;18.996;2022-12-20T16:56:05;38.40;;;18.30;;
39356;SDS011;25077;50.302;18.996;2022-12-20T16:59:07;40.53;;;19.10;;
39356;SDS011;25077;50.302;18.996;2022-12-20T17:02:15;36.10;;;18.17;;
39356;SDS011;25077;50.302;18.996;2022-12-20T17:05:25;36.03;;;19.07;;
39356;SDS011;25077;50.302;18.996;2022-12-20T17:08:31;38.67;;;18.63;;
39356;SDS011;25077;50.302;18.996;2022-12-20T17:11:33;40.17;;;18.23;;
39356;SDS011;25077;50.302;18.996;2022-12-20T17:14:35;43.20;;;19.00;;
39356;SDS011;25077;50.302;18.996;2022-12-20T17:17:37;37.70;;;19.63;;
39356;SDS011;25077;50.302;18.996;2022-12-20T17:20:39;33.27;;;16.83;;
39356;SDS011;25077;50.302;18.996;2022-12-20T17:23:43;39.50;;;18.90;;
39356;SDS011;25077;50.302;18.996;2022-12-20T17:26:46;35.53;;;17.30;;
39356;SDS011;25077;50.302;18.996;2022-12-20T17:29:49;34.83;;;17.40;;
39356;SDS011;25077;50.302;18.996;2022-12-20T17:32:51;34.40;;;17.83;;
39356;SDS011;25077;50.302;18.996;2022-12-20T17:35:53;37.60;;;18.53;;
39356;SDS011;25077;50.302;18.996;2022-12-20T17:38:57;36.10;;;16.27;;
39356;SDS011;25077;50.302;18.996;2022-12-20T17:41:59;39.57;;;18.13;;
39356;SDS011;25077;50.302;18.996;2022-12-20T17:45:01;36.63;;;17.60;;
39356;SDS011;25077;50.302;18.996;2022-12-20T17:48:04;38.10;;;18.43;;
39356;SDS011;25077;50.302;18.996;2022-12-20T17:51:08;41.73;;;20.70;;
39356;SDS011;25077;50.302;18.996;2022-12-20T17:54:19;35.37;;;17.63;;
39356;SDS011;25077;50.302;18.996;2022-12-20T17:57:22;40.33;;;19.57;;
39356;SDS011;25077;50.302;18.996;2022-12-20T18:00:25;42.50;;;19.63;;
39356;SDS011;25077;50.302;18.996;2022-12-20T18:03:29;40.83;;;18.93;;
39356;SDS011;25077;50.302;18.996;2022-12-20T18:06:32;41.20;;;19.23;;
39356;SDS011;25077;50.302;18.996;2022-12-20T18:09:38;38.20;;;19.87;;
39356;SDS011;25077;50.302;18.996;2022-12-20T18:12:41;36.43;;;18.37;;
39356;SDS011;25077;50.302;18.996;2022-12-20T18:15:43;43.00;;;20.17;;